KSBN/SBN METAR and TAF weather

Enter ICAO airport designator
Station Type Date Time Source
KSBN METAR 2022/01/29 12:54 UTC NOAA

KSBN 291254Z 22004KT 10SM FEW060 M16/M19 A3022 RMK AO2 SLP252 T11561189


Station Type Date Time Source
KSBN Decoded METAR 2022/01/29 12:54 UTC NOAA

SOUTH BEND REGIONAL AIRPORT, IN, United States (KSBN) 41-42N 086-19W 237M
Jan 29, 2022 - 07:54 AM EST / 2022.01.29 1254 UTC
Wind: from the SW (220 degrees) at 5 MPH (4 KT):0
Visibility: 10 mile(s):0
Sky conditions: mostly clear
Temperature: 3.9 F (-15.6 C)
Windchill: -5 F (-21 C):2
Dew Point: -2.0 F (-18.9 C)
Relative Humidity: 75%
Pressure (altimeter): 30.22 in. Hg (1023 hPa)
ob: KSBN 291254Z 22004KT 10SM FEW060 M16/M19 A3022 RMK AO2 SLP252 T11561189
cycle: 13

Station Type Date Time Source
KSBN TAF 2022/01/29 12:24 UTC NOAA

TAF KSBN 291121Z 2912/3012 21005KT P6SM SCT070

Example: see airport list